EFIV

Ivalo Airport

Ivalo, Finland
METAR EFIV 211950Z AUTO 25005KT CAVOK M19/M22 Q1006
Observed Flight Rules
Jan-21 @ 19:50 UTC (16 minutes ago) Visual Flight Rules
Wind Visibility Clouds
250° at 5 knots 10,000+ meters
  • Clear skies
Temperatures Readings
Current -19°C / -2°F
Dewpoint -22°C / -8°F
Humidity 77%
Altimeter 29.7" Hg
Pressure 1005.92 hPa
Elevation 148
METAR EFIV 211950Z AUTO 25005KT CAVOK M19/M22 Q1006
Observed Flight Rules
Jan-21 @ 19:50 UTC
(16 minutes ago)
VFR
Wind Visibility
250° at 5 knots 10,000+ meters
Clouds
  • Clear skies
Temperature Dewpoint
-19°C / -2°F -22°C / -8°F
Humidity Altimeter Pressure
77% 29.7" Hg 1005.92 hPa